Readstown, WI

6:18 PM CST on November 26, 2014 (GMT -0600)
Country,hill top | Change Station
CLOSE
Current Station
Personal Weather Station
Location: Readstown, WI
Elevation: 1129 ft
Nearby Weather Stations
Active Advisory: Special Statement Active Notice: Public Information Statement

Elev 1129 ft 43.46 °N, 90.78 °W | Updated 15 seconds ago

Overcast
Overcast
22.3 °F
Feels Like 22 °F
N
0.0
Wind Variable Wind from West
Gusts 0.0 mph

Today
High -- | Low -- °F
--% Chance of Precip.
Yesterday
High -- | Low -- °F
Precip. -- in
7:10 AM 4:30 PM
Waxing Crescent, 24% visible
Pressure 30.17 in
Visibility 5.0 miles
Clouds Scattered Clouds 3700 ft
Mostly Cloudy 4600 ft
Overcast 5000 ft
Windchill 22 °F
Dew Point 14 °F
Humidity 72%
Rainfall 0.00 in
Snow Depth Not available.
UV 0.0 out of 12
Pollen .10 out of 12
Air Quality Not available.
Flu Activity Not available.
METAR KY51 262355Z AUTO 33009KT 5SM SCT037 BKN046 OVC050 M04/M06 A3017 RMK AO1 T10411065 11027 21047

More Conditions Fewer Conditions

Pressure 30.17 in
Visibility 5.0 miles
Clouds Scattered Clouds 3700 ft
Mostly Cloudy 4600 ft
Overcast 5000 ft
Windchill 22 °F
Dew Point 14 °F
Humidity 72%
Rainfall 0.00 in
Snow Depth Not available.
UV 0.0 out of 12
Pollen .10 out of 12
Air Quality Not available.
Flu Activity Not available.
METAR KY51 262355Z AUTO 33009KT 5SM SCT037 BKN046 OVC050 M04/M06 A3017 RMK AO1 T10411065 11027 21047

More Conditions Fewer Conditions

10-Day Weather Forecast

Almanac

Astronomy

Nov. 26, 2014 Rise Set
Actual Time
Civil Twilight
Nautical Twilight
Astronomical Twilight
Moon
Length of Visible Light
Length of Day
Tomorrow will be .
, % of the Moon is Illuminated

Today's Extremes

State Highs State Lows

Community

WunderPhotos

Upload Photos

1,773,930 photos uploaded!

WunderBlogs® & News

Nearby

Air Quality

  Air Quality AQ Index Pollutant
Not available.

Snow Depth

Station Depth Elevation

Earthquake Activity

City Distance Mag. Time & Date
Minimum magnitude displayed is 2.5.

Coastal Water Temperatures

Place Temperature

Nearby Weather Stations